^^
Station Historical Data
Daily Summary for June 4, 2017 Units:  Both    English   Metric
« Previous Day
Next Day »
Daily Weekly Monthly Yearly Custom
  High: Low: Average:
Temperature: 72.5 °F /  22.5 °C 41.4 °F /  5.2 °C 56.5 °F /  13.6 °C
Dew Point: 35.4 °F /  1.9 °C 27.3 °F /  -2.6 °C 30.2 °F /  -1 °C
Humidity: 64% 22% 39%
Wind Speed: 6.0mph /  9.7km/h - 0.4mph /  0.6km/h
Wind Gust: 8.0mph /  12.9km/h - -
Wind- - South
Pressure: 30.40 in /  1029.3 hPa 30.30 in /  1026 hPa -
Precipitation: 0.00 in /  0 mm    
Historical Graphs
 
 
Tabular Data for June 4, 2017
Time Temperature Dew Point Pressure Wind Wind Speed Wind Gust Humidity Rainfall Rate (Hourly) solar Conditions
00:00 46.2 °F /  7.9 °C 27.7 °F /  -2.4 °C 30.37in /  1028.3hPa East 2.0mph /  3.2km/h 4.0mph /  6.4km/h 48% 0.00in /  0mm 0.0 W/m2
00:06 46.6 °F /  8.1 °C 27.5 °F /  -2.5 °C 30.37in /  1028.3hPa Calm     47% 0.00in /  0mm 0.0 W/m2
00:12 46.6 °F /  8.1 °C 27.5 °F /  -2.5 °C 30.36in /  1028hPa Calm   3.0mph /  4.8km/h 47% 0.00in /  0mm 0.0 W/m2
00:18 46.6 °F /  8.1 °C 27.5 °F /  -2.5 °C 30.37in /  1028.3hPa Calm   2.0mph /  3.2km/h 47% 0.00in /  0mm 0.0 W/m2
00:25 46.6 °F /  8.1 °C 27.9 °F /  -2.3 °C 30.36in /  1028hPa Calm   1.0mph /  1.6km/h 48% 0.00in /  0mm 0.0 W/m2
00:30 46.2 °F /  7.9 °C 27.7 °F /  -2.4 °C 30.36in /  1028hPa Calm     48% 0.00in /  0mm 0.0 W/m2
00:37 46.0 °F /  7.8 °C 27.5 °F /  -2.5 °C 30.36in /  1028hPa Calm   2.0mph /  3.2km/h 48% 0.00in /  0mm 0.0 W/m2
00:43 45.9 °F /  7.7 °C 27.9 °F /  -2.3 °C 30.36in /  1028hPa Calm   2.0mph /  3.2km/h 49% 0.00in /  0mm 0.0 W/m2
00:49 45.9 °F /  7.7 °C 27.9 °F /  -2.3 °C 30.36in /  1028hPa Calm     49% 0.00in /  0mm 0.0 W/m2
00:55 45.9 °F /  7.7 °C 27.9 °F /  -2.3 °C 30.36in /  1028hPa Calm     49% 0.00in /  0mm 0.0 W/m2
01:01 45.9 °F /  7.7 °C 27.3 °F /  -2.6 °C 30.36in /  1028hPa Calm     48% 0.00in /  0mm 0.0 W/m2
01:07 45.9 °F /  7.7 °C 27.9 °F /  -2.3 °C 30.36in /  1028hPa Calm     49% 0.00in /  0mm 0.0 W/m2
01:14 45.7 °F /  7.6 °C 28.0 °F /  -2.2 °C 30.36in /  1028hPa Calm     50% 0.00in /  0mm 0.0 W/m2
01:20 45.3 °F /  7.4 °C 28.2 °F /  -2.1 °C 30.36in /  1028hPa Calm     51% 0.00in /  0mm 0.0 W/m2
01:26 45.0 °F /  7.2 °C 27.9 °F /  -2.3 °C 30.36in /  1028hPa Calm     51% 0.00in /  0mm 0.0 W/m2
01:32 44.8 °F /  7.1 °C 28.2 °F /  -2.1 °C 30.36in /  1028hPa Calm     52% 0.00in /  0mm 0.0 W/m2
01:38 44.2 °F /  6.8 °C 28.2 °F /  -2.1 °C 30.35in /  1027.7hPa Calm     53% 0.00in /  0mm 0.0 W/m2
01:44 44.1 °F /  6.7 °C 28.0 °F /  -2.2 °C 30.35in /  1027.7hPa Calm     53% 0.00in /  0mm 0.0 W/m2
01:51 43.9 °F /  6.6 °C 28.4 °F /  -2 °C 30.35in /  1027.7hPa Calm     54% 0.00in /  0mm 0.0 W/m2
01:57 43.9 °F /  6.6 °C 28.4 °F /  -2 °C 30.35in /  1027.7hPa Calm     54% 0.00in /  0mm 0.0 W/m2
02:03 44.1 °F /  6.7 °C 28.0 °F /  -2.2 °C 30.35in /  1027.7hPa Calm   1.0mph /  1.6km/h 53% 0.00in /  0mm 0.0 W/m2
02:09 44.1 °F /  6.7 °C 28.0 °F /  -2.2 °C 30.34in /  1027.3hPa Calm     53% 0.00in /  0mm 0.0 W/m2
02:15 44.2 °F /  6.8 °C 28.2 °F /  -2.1 °C 30.34in /  1027.3hPa Calm   3.0mph /  4.8km/h 53% 0.00in /  0mm 0.0 W/m2
02:23 44.4 °F /  6.9 °C 27.9 °F /  -2.3 °C 30.34in /  1027.3hPa Calm     52% 0.00in /  0mm 0.0 W/m2
02:29 44.8 °F /  7.1 °C 28.2 °F /  -2.1 °C 30.34in /  1027.3hPa Calm   1.0mph /  1.6km/h 52% 0.00in /  0mm 0.0 W/m2
02:36 44.8 °F /  7.1 °C 28.2 °F /  -2.1 °C 30.33in /  1027hPa Calm     52% 0.00in /  0mm 0.0 W/m2
02:44 44.8 °F /  7.1 °C 28.2 °F /  -2.1 °C 30.33in /  1027hPa Calm   2.0mph /  3.2km/h 52% 0.00in /  0mm 0.0 W/m2
02:50 44.8 °F /  7.1 °C 28.2 °F /  -2.1 °C 30.33in /  1027hPa Calm     52% 0.00in /  0mm 0.0 W/m2
02:56 44.8 °F /  7.1 °C 28.2 °F /  -2.1 °C 30.33in /  1027hPa Calm     52% 0.00in /  0mm 0.0 W/m2
03:02 44.6 °F /  7 °C 28.6 °F /  -1.9 °C 30.33in /  1027hPa Calm   1.0mph /  1.6km/h 53% 0.00in /  0mm 0.0 W/m2
03:08 44.4 °F /  6.9 °C 28.4 °F /  -2 °C 30.33in /  1027hPa Calm     53% 0.00in /  0mm 0.0 W/m2
03:14 44.4 °F /  6.9 °C 28.4 °F /  -2 °C 30.33in /  1027hPa Calm     53% 0.00in /  0mm 0.0 W/m2
03:21 44.4 °F /  6.9 °C 28.4 °F /  -2 °C 30.33in /  1027hPa Calm   2.0mph /  3.2km/h 53% 0.00in /  0mm 0.0 W/m2
03:27 44.2 °F /  6.8 °C 28.2 °F /  -2.1 °C 30.33in /  1027hPa Calm     53% 0.00in /  0mm 0.0 W/m2
03:33 44.2 °F /  6.8 °C 28.2 °F /  -2.1 °C 30.33in /  1027hPa Calm     53% 0.00in /  0mm 0.0 W/m2
03:39 44.1 °F /  6.7 °C 28.4 °F /  -2 °C 30.33in /  1027hPa Calm   2.0mph /  3.2km/h 54% 0.00in /  0mm 0.0 W/m2
03:45 44.1 °F /  6.7 °C 28.4 °F /  -2 °C 30.33in /  1027hPa Calm   1.0mph /  1.6km/h 54% 0.00in /  0mm 0.0 W/m2
03:51 44.1 °F /  6.7 °C 28.0 °F /  -2.2 °C 30.33in /  1027hPa Calm   1.0mph /  1.6km/h 53% 0.00in /  0mm 0.0 W/m2
03:58 44.1 °F /  6.7 °C 28.0 °F /  -2.2 °C 30.33in /  1027hPa Calm   1.0mph /  1.6km/h 53% 0.00in /  0mm 0.0 W/m2
04:04 44.1 °F /  6.7 °C 28.4 °F /  -2 °C 30.33in /  1027hPa Calm   2.0mph /  3.2km/h 54% 0.00in /  0mm 0.0 W/m2
04:10 44.1 °F /  6.7 °C 28.9 °F /  -1.7 °C 30.33in /  1027hPa Calm     55% 0.00in /  0mm 0.0 W/m2
04:16 44.1 °F /  6.7 °C 28.4 °F /  -2 °C 30.33in /  1027hPa Calm     54% 0.00in /  0mm 0.0 W/m2
04:22 44.1 °F /  6.7 °C 28.4 °F /  -2 °C 30.33in /  1027hPa Calm     54% 0.00in /  0mm 0.0 W/m2
04:28 43.7 °F /  6.5 °C 28.2 °F /  -2.1 °C 30.33in /  1027hPa Calm   1.0mph /  1.6km/h 54% 0.00in /  0mm 0.0 W/m2
04:34 43.5 °F /  6.4 °C 28.0 °F /  -2.2 °C 30.33in /  1027hPa Calm     54% 0.00in /  0mm 0.0 W/m2
04:41 43.0 °F /  6.1 °C 27.9 °F /  -2.3 °C 30.33in /  1027hPa Calm     55% 0.00in /  0mm 0.0 W/m2
04:47 42.4 °F /  5.8 °C 28.2 °F /  -2.1 °C 30.33in /  1027hPa Calm     57% 0.00in /  0mm 0.0 W/m2
04:53 42.3 °F /  5.7 °C 28.0 °F /  -2.2 °C 30.34in /  1027.3hPa Calm     57% 0.00in /  0mm 0.0 W/m2
04:59 42.3 °F /  5.7 °C 28.0 °F /  -2.2 °C 30.33in /  1027hPa Calm   1.0mph /  1.6km/h 57% 0.00in /  0mm 0.0 W/m2
05:05 42.3 °F /  5.7 °C 28.6 °F /  -1.9 °C 30.33in /  1027hPa Calm     58% 0.00in /  0mm 0.0 W/m2
05:11 42.6 °F /  5.9 °C 28.4 °F /  -2 °C 30.33in /  1027hPa Calm     57% 0.00in /  0mm 0.0 W/m2
05:17 43.0 °F /  6.1 °C 28.4 °F /  -2 °C 30.34in /  1027.3hPa Calm   1.0mph /  1.6km/h 56% 0.00in /  0mm 0.0 W/m2
05:24 43.0 °F /  6.1 °C 28.4 °F /  -2 °C 30.34in /  1027.3hPa Calm   1.0mph /  1.6km/h 56% 0.00in /  0mm 0.0 W/m2
05:30 43.2 °F /  6.2 °C 28.6 °F /  -1.9 °C 30.34in /  1027.3hPa Calm     56% 0.00in /  0mm 0.0 W/m2
05:36 43.2 °F /  6.2 °C 28.6 °F /  -1.9 °C 30.35in /  1027.7hPa Calm     56% 0.00in /  0mm 0.0 W/m2
05:42 42.4 °F /  5.8 °C 27.9 °F /  -2.3 °C 30.35in /  1027.7hPa Calm     56% 0.00in /  0mm 0.0 W/m2
05:48 41.9 °F /  5.5 °C 28.2 °F /  -2.1 °C 30.35in /  1027.7hPa Calm     58% 0.00in /  0mm 0.0 W/m2
05:54 41.5 °F /  5.3 °C 28.8 °F /  -1.8 °C 30.35in /  1027.7hPa Calm   2.0mph /  3.2km/h 60% 0.00in /  0mm 0.0 W/m2
06:01 41.4 °F /  5.2 °C 28.9 °F /  -1.7 °C 30.36in /  1028hPa Calm   1.0mph /  1.6km/h 61% 0.00in /  0mm 0.0 W/m2
06:08 41.7 °F /  5.4 °C 29.3 °F /  -1.5 °C 30.36in /  1028hPa Calm   1.0mph /  1.6km/h 61% 0.00in /  0mm 0.0 W/m2
06:13 42.1 °F /  5.6 °C 29.1 °F /  -1.6 °C 30.36in /  1028hPa Calm   1.0mph /  1.6km/h 60% 0.00in /  0mm 0.0 W/m2
06:19 42.3 °F /  5.7 °C 29.3 °F /  -1.5 °C 30.36in /  1028hPa Calm   2.0mph /  3.2km/h 60% 0.00in /  0mm 0.0 W/m2
06:25 42.4 °F /  5.8 °C 29.5 °F /  -1.4 °C 30.37in /  1028.3hPa Calm     60% 0.00in /  0mm 0.0 W/m2
06:32 42.8 °F /  6 °C 29.8 °F /  -1.2 °C 30.37in /  1028.3hPa Calm     60% 0.00in /  0mm 5.0 W/m2
06:37 43.2 °F /  6.2 °C 29.8 °F /  -1.2 °C 30.37in /  1028.3hPa Calm     59% 0.00in /  0mm 7.0 W/m2
06:44 43.5 °F /  6.4 °C 29.3 °F /  -1.5 °C 30.38in /  1028.7hPa Calm     57% 0.00in /  0mm 11.0 W/m2
06:50 43.2 °F /  6.2 °C 28.9 °F /  -1.7 °C 30.38in /  1028.7hPa Calm     57% 0.00in /  0mm 12.0 W/m2
06:56 43.2 °F /  6.2 °C 29.3 °F /  -1.5 °C 30.38in /  1028.7hPa Calm     58% 0.00in /  0mm 12.0 W/m2
07:02 43.0 °F /  6.1 °C 29.7 °F /  -1.3 °C 30.38in /  1028.7hPa Calm     59% 0.00in /  0mm 14.0 W/m2
07:08 43.0 °F /  6.1 °C 30.0 °F /  -1.1 °C 30.38in /  1028.7hPa Calm   1.0mph /  1.6km/h 60% 0.00in /  0mm 16.0 W/m2
07:14 43.0 °F /  6.1 °C 30.0 °F /  -1.1 °C 30.38in /  1028.7hPa Calm     60% 0.00in /  0mm 18.0 W/m2
07:20 43.2 °F /  6.2 °C 30.2 °F /  -1 °C 30.38in /  1028.7hPa Calm     60% 0.00in /  0mm 19.0 W/m2
07:27 43.2 °F /  6.2 °C 31.1 °F /  -0.5 °C 30.38in /  1028.7hPa Calm     62% 0.00in /  0mm 19.0 W/m2
07:33 43.5 °F /  6.4 °C 31.8 °F /  -0.1 °C 30.38in /  1028.7hPa Calm     63% 0.00in /  0mm 21.0 W/m2
07:39 43.9 °F /  6.6 °C 32.2 °F /  0.1 °C 30.38in /  1028.7hPa Calm     63% 0.00in /  0mm 23.0 W/m2
07:45 44.1 °F /  6.7 °C 32.7 °F /  0.4 °C 30.39in /  1029hPa Calm     64% 0.00in /  0mm 23.0 W/m2
07:51 44.8 °F /  7.1 °C 33.3 °F /  0.7 °C 30.39in /  1029hPa Calm     64% 0.00in /  0mm 25.0 W/m2
07:57 46.6 °F /  8.1 °C 34.7 °F /  1.5 °C 30.39in /  1029hPa Calm     63% 0.00in /  0mm 135.0 W/m2
08:03 49.3 °F /  9.6 °C 34.7 °F /  1.5 °C 30.39in /  1029hPa Calm     57% 0.00in /  0mm 308.0 W/m2
08:10 52.2 °F /  11.2 °C 35.1 °F /  1.7 °C 30.39in /  1029hPa Calm     52% 0.00in /  0mm 327.0 W/m2
08:16 54.7 °F /  12.6 °C 34.3 °F /  1.3 °C 30.39in /  1029hPa Calm     46% 0.00in /  0mm 350.0 W/m2
08:22 56.8 °F /  13.8 °C 34.5 °F /  1.4 °C 30.39in /  1029hPa Calm     43% 0.00in /  0mm 369.0 W/m2
08:28 59.0 °F /  15 °C 35.4 °F /  1.9 °C 30.40in /  1029.3hPa Calm     41% 0.00in /  0mm 388.0 W/m2
08:34 61.2 °F /  16.2 °C 33.3 °F /  0.7 °C 30.40in /  1029.3hPa Calm     35% 0.00in /  0mm 406.0 W/m2
08:40 63.0 °F /  17.2 °C 34.9 °F /  1.6 °C 30.40in /  1029.3hPa Calm     35% 0.00in /  0mm 425.0 W/m2
08:46 64.0 °F /  17.8 °C 32.7 °F /  0.4 °C 30.40in /  1029.3hPa Calm     31% 0.00in /  0mm 441.0 W/m2
08:52 65.1 °F /  18.4 °C 32.9 °F /  0.5 °C 30.40in /  1029.3hPa Calm   1.0mph /  1.6km/h 30% 0.00in /  0mm 459.0 W/m2
08:58 66.4 °F /  19.1 °C 32.4 °F /  0.2 °C 30.40in /  1029.3hPa Calm     28% 0.00in /  0mm 478.0 W/m2
09:04 66.9 °F /  19.4 °C 31.8 °F /  -0.1 °C 30.40in /  1029.3hPa Calm     27% 0.00in /  0mm 494.0 W/m2
09:10 67.5 °F /  19.7 °C 31.5 °F /  -0.3 °C 30.40in /  1029.3hPa Calm   1.0mph /  1.6km/h 26% 0.00in /  0mm 510.0 W/m2
09:16 66.9 °F /  19.4 °C 31.8 °F /  -0.1 °C 30.40in /  1029.3hPa Calm     27% 0.00in /  0mm 524.0 W/m2
09:22 66.7 °F /  19.3 °C 31.6 °F /  -0.2 °C 30.40in /  1029.3hPa Calm     27% 0.00in /  0mm 540.0 W/m2
09:28 67.3 °F /  19.6 °C 32.2 °F /  0.1 °C 30.40in /  1029.3hPa Calm   2.0mph /  3.2km/h 27% 0.00in /  0mm 554.0 W/m2
09:34 67.6 °F /  19.8 °C 32.5 °F /  0.3 °C 30.40in /  1029.3hPa Calm   1.0mph /  1.6km/h 27% 0.00in /  0mm 564.0 W/m2
09:40 68.2 °F /  20.1 °C 32.9 °F /  0.5 °C 30.40in /  1029.3hPa Calm   2.0mph /  3.2km/h 27% 0.00in /  0mm 580.0 W/m2
09:46 68.7 °F /  20.4 °C 31.5 °F /  -0.3 °C 30.40in /  1029.3hPa Calm   1.0mph /  1.6km/h 25% 0.00in /  0mm 592.0 W/m2
09:52 69.3 °F /  20.7 °C 32.9 °F /  0.5 °C 30.40in /  1029.3hPa Calm   1.0mph /  1.6km/h 26% 0.00in /  0mm 603.0 W/m2
09:58 69.4 °F /  20.8 °C 30.0 °F /  -1.1 °C 30.40in /  1029.3hPa Calm   4.0mph /  6.4km/h 23% 0.00in /  0mm 613.0 W/m2
10:04 69.6 °F /  20.9 °C 30.2 °F /  -1 °C 30.40in /  1029.3hPa Calm   1.0mph /  1.6km/h 23% 0.00in /  0mm 624.0 W/m2
10:10 70.0 °F /  21.1 °C 30.6 °F /  -0.8 °C 30.40in /  1029.3hPa Calm   1.0mph /  1.6km/h 23% 0.00in /  0mm 631.0 W/m2
10:16 70.3 °F /  21.3 °C 30.7 °F /  -0.7 °C 30.40in /  1029.3hPa NNW 2.9mph /  4.7km/h 3.0mph /  4.8km/h 23% 0.00in /  0mm 643.0 W/m2
10:23 70.5 °F /  21.4 °C 30.9 °F /  -0.6 °C 30.39in /  1029hPa Calm   1.0mph /  1.6km/h 23% 0.00in /  0mm 650.0 W/m2
10:28 70.5 °F /  21.4 °C 30.9 °F /  -0.6 °C 30.39in /  1029hPa North 2.0mph /  3.2km/h 3.0mph /  4.8km/h 23% 0.00in /  0mm 659.0 W/m2
10:34 70.3 °F /  21.3 °C 29.7 °F /  -1.3 °C 30.39in /  1029hPa North 0.9mph /  1.4km/h 2.0mph /  3.2km/h 22% 0.00in /  0mm 668.0 W/m2
10:40 70.3 °F /  21.3 °C 30.7 °F /  -0.7 °C 30.39in /  1029hPa ESE 0.9mph /  1.4km/h 2.0mph /  3.2km/h 23% 0.00in /  0mm 675.0 W/m2
10:46 70.9 °F /  21.6 °C 31.3 °F /  -0.4 °C 30.38in /  1028.7hPa Calm   5.0mph /  8km/h 23% 0.00in /  0mm 680.0 W/m2
10:52 71.2 °F /  21.8 °C 31.5 °F /  -0.3 °C 30.38in /  1028.7hPa Calm   1.0mph /  1.6km/h 23% 0.00in /  0mm 689.0 W/m2
10:58 71.6 °F /  22 °C 31.8 °F /  -0.1 °C 30.38in /  1028.7hPa Calm   6.0mph /  9.7km/h 23% 0.00in /  0mm 691.0 W/m2
11:10 71.8 °F /  22.1 °C 33.1 °F /  0.6 °C 30.38in /  1028.7hPa SSW 2.9mph /  4.7km/h 4.0mph /  6.4km/h 24% 0.00in /  0mm 700.0 W/m2
11:16 71.2 °F /  21.8 °C 30.4 °F /  -0.9 °C 30.37in /  1028.3hPa NE 2.0mph /  3.2km/h 7.0mph /  11.3km/h 22% 0.00in /  0mm 703.0 W/m2
11:22 71.2 °F /  21.8 °C 30.4 °F /  -0.9 °C 30.37in /  1028.3hPa Calm   1.0mph /  1.6km/h 22% 0.00in /  0mm 705.0 W/m2
11:28 71.2 °F /  21.8 °C 31.5 °F /  -0.3 °C 30.37in /  1028.3hPa Calm   1.0mph /  1.6km/h 23% 0.00in /  0mm 708.0 W/m2
11:35 71.1 °F /  21.7 °C 30.2 °F /  -1 °C 30.37in /  1028.3hPa Calm   5.0mph /  8km/h 22% 0.00in /  0mm 710.0 W/m2
11:40 71.1 °F /  21.7 °C 31.5 °F /  -0.3 °C 30.36in /  1028hPa NNE 6.0mph /  9.7km/h 6.0mph /  9.7km/h 23% 0.00in /  0mm 708.0 W/m2
11:46 71.4 °F /  21.9 °C 31.6 °F /  -0.2 °C 30.36in /  1028hPa Calm   1.0mph /  1.6km/h 23% 0.00in /  0mm 707.0 W/m2
11:52 71.2 °F /  21.8 °C 30.4 °F /  -0.9 °C 30.35in /  1027.7hPa NNW 0.9mph /  1.4km/h 2.0mph /  3.2km/h 22% 0.00in /  0mm 705.0 W/m2
11:58 71.8 °F /  22.1 °C 32.0 °F /  0 °C 30.35in /  1027.7hPa NNE 2.0mph /  3.2km/h 5.0mph /  8km/h 23% 0.00in /  0mm 705.0 W/m2
12:04 72.1 °F /  22.3 °C 31.1 °F /  -0.5 °C 30.35in /  1027.7hPa Calm   3.0mph /  4.8km/h 22% 0.00in /  0mm 701.0 W/m2
12:10 72.1 °F /  22.3 °C 31.1 °F /  -0.5 °C 30.34in /  1027.3hPa NNW 4.9mph /  7.9km/h 5.0mph /  8km/h 22% 0.00in /  0mm 701.0 W/m2
12:17 72.3 °F /  22.4 °C 31.3 °F /  -0.4 °C 30.34in /  1027.3hPa NNE 2.0mph /  3.2km/h 2.0mph /  3.2km/h 22% 0.00in /  0mm 700.0 W/m2
12:23 72.3 °F /  22.4 °C 31.3 °F /  -0.4 °C 30.34in /  1027.3hPa West 0.9mph /  1.4km/h 4.0mph /  6.4km/h 22% 0.00in /  0mm 694.0 W/m2
12:29 72.5 °F /  22.5 °C 31.5 °F /  -0.3 °C 30.33in /  1027hPa WNW 2.9mph /  4.7km/h 3.0mph /  4.8km/h 22% 0.00in /  0mm 687.0 W/m2
12:35 72.3 °F /  22.4 °C 31.3 °F /  -0.4 °C 30.33in /  1027hPa Calm   4.0mph /  6.4km/h 22% 0.00in /  0mm 679.0 W/m2
12:41 72.1 °F /  22.3 °C 31.1 °F /  -0.5 °C 30.33in /  1027hPa West 0.9mph /  1.4km/h 1.0mph /  1.6km/h 22% 0.00in /  0mm 675.0 W/m2
12:47 72.0 °F /  22.2 °C 32.2 °F /  0.1 °C 30.33in /  1027hPa West 2.0mph /  3.2km/h 3.0mph /  4.8km/h 23% 0.00in /  0mm 668.0 W/m2
12:53 72.0 °F /  22.2 °C 32.2 °F /  0.1 °C 30.32in /  1026.6hPa Calm   4.0mph /  6.4km/h 23% 0.00in /  0mm 663.0 W/m2
12:59 72.3 °F /  22.4 °C 32.4 °F /  0.2 °C 30.32in /  1026.6hPa SW 0.9mph /  1.4km/h 5.0mph /  8km/h 23% 0.00in /  0mm 656.0 W/m2
13:05 72.1 °F /  22.3 °C 31.1 °F /  -0.5 °C 30.32in /  1026.6hPa Calm   4.0mph /  6.4km/h 22% 0.00in /  0mm 649.0 W/m2
13:11 71.4 °F /  21.9 °C 31.6 °F /  -0.2 °C 30.31in /  1026.3hPa WSW 4.9mph /  7.9km/h 7.0mph /  11.3km/h 23% 0.00in /  0mm 640.0 W/m2
13:17 71.1 °F /  21.7 °C 31.5 °F /  -0.3 °C 30.31in /  1026.3hPa SSW 0.9mph /  1.4km/h 3.0mph /  4.8km/h 23% 0.00in /  0mm 631.0 W/m2
13:23 71.1 °F /  21.7 °C 31.5 °F /  -0.3 °C 30.31in /  1026.3hPa Calm   2.0mph /  3.2km/h 23% 0.00in /  0mm 622.0 W/m2
13:29 71.2 °F /  21.8 °C 31.5 °F /  -0.3 °C 30.31in /  1026.3hPa WSW 4.9mph /  7.9km/h 5.0mph /  8km/h 23% 0.00in /  0mm 610.0 W/m2
13:35 71.1 °F /  21.7 °C 31.5 °F /  -0.3 °C 30.31in /  1026.3hPa Calm   6.0mph /  9.7km/h 23% 0.00in /  0mm 599.0 W/m2
13:41 71.4 °F /  21.9 °C 31.6 °F /  -0.2 °C 30.31in /  1026.3hPa Calm   5.0mph /  8km/h 23% 0.00in /  0mm 585.0 W/m2
13:47 71.6 °F /  22 °C 31.8 °F /  -0.1 °C 30.31in /  1026.3hPa Calm   4.0mph /  6.4km/h 23% 0.00in /  0mm 575.0 W/m2
13:53 71.8 °F /  22.1 °C 30.9 °F /  -0.6 °C 30.31in /  1026.3hPa Calm   4.0mph /  6.4km/h 22% 0.00in /  0mm 561.0 W/m2
13:59 72.0 °F /  22.2 °C 31.1 °F /  -0.5 °C 30.30in /  1026hPa North 0.9mph /  1.4km/h 4.0mph /  6.4km/h 22% 0.00in /  0mm 550.0 W/m2
14:05 72.1 °F /  22.3 °C 31.1 °F /  -0.5 °C 30.30in /  1026hPa WNW 0.9mph /  1.4km/h 8.0mph /  12.9km/h 22% 0.00in /  0mm 538.0 W/m2
14:11 72.1 °F /  22.3 °C 32.4 °F /  0.2 °C 30.30in /  1026hPa WNW 4.9mph /  7.9km/h 6.0mph /  9.7km/h 23% 0.00in /  0mm 526.0 W/m2
14:17 71.8 °F /  22.1 °C 30.9 °F /  -0.6 °C 30.30in /  1026hPa West 2.9mph /  4.7km/h 4.0mph /  6.4km/h 22% 0.00in /  0mm 510.0 W/m2
14:23 71.8 °F /  22.1 °C 30.9 °F /  -0.6 °C 30.30in /  1026hPa West 4.9mph /  7.9km/h 7.0mph /  11.3km/h 22% 0.00in /  0mm 492.0 W/m2
14:29 71.8 °F /  22.1 °C 30.9 °F /  -0.6 °C 30.30in /  1026hPa WNW 2.0mph /  3.2km/h 2.0mph /  3.2km/h 22% 0.00in /  0mm 475.0 W/m2
14:35 72.0 °F /  22.2 °C 31.1 °F /  -0.5 °C 30.30in /  1026hPa Calm   1.0mph /  1.6km/h 22% 0.00in /  0mm 459.0 W/m2
14:41 72.0 °F /  22.2 °C 31.1 °F /  -0.5 °C 30.30in /  1026hPa South 0.9mph /  1.4km/h 5.0mph /  8km/h 22% 0.00in /  0mm 443.0 W/m2
14:47 72.0 °F /  22.2 °C 31.1 °F /  -0.5 °C 30.30in /  1026hPa SW 0.9mph /  1.4km/h 5.0mph /  8km/h 22% 0.00in /  0mm 425.0 W/m2
14:53 72.0 °F /  22.2 °C 32.2 °F /  0.1 °C 30.30in /  1026hPa WSW 2.9mph /  4.7km/h 7.0mph /  11.3km/h 23% 0.00in /  0mm 408.0 W/m2
14:59 71.8 °F /  22.1 °C 30.9 °F /  -0.6 °C 30.30in /  1026hPa Calm     22% 0.00in /  0mm 390.0 W/m2
15:05 71.6 °F /  22 °C 30.7 °F /  -0.7 °C 30.30in /  1026hPa WSW 0.9mph /  1.4km/h 3.0mph /  4.8km/h 22% 0.00in /  0mm 373.0 W/m2
15:11 71.6 °F /  22 °C 31.8 °F /  -0.1 °C 30.30in /  1026hPa WSW 0.9mph /  1.4km/h 4.0mph /  6.4km/h 23% 0.00in /  0mm 353.0 W/m2
15:17 71.4 °F /  21.9 °C 31.6 °F /  -0.2 °C 30.30in /  1026hPa Calm   3.0mph /  4.8km/h 23% 0.00in /  0mm 334.0 W/m2
15:23 71.4 °F /  21.9 °C 31.6 °F /  -0.2 °C 30.30in /  1026hPa NNW 4.0mph /  6.4km/h 6.0mph /  9.7km/h 23% 0.00in /  0mm 47.0 W/m2
15:29 71.2 °F /  21.8 °C 31.5 °F /  -0.3 °C 30.30in /  1026hPa Calm   2.0mph /  3.2km/h 23% 0.00in /  0mm 42.0 W/m2
15:35 71.1 °F /  21.7 °C 30.2 °F /  -1 °C 30.30in /  1026hPa Calm     22% 0.00in /  0mm 40.0 W/m2
15:41 70.7 °F /  21.5 °C 31.1 °F /  -0.5 °C 30.30in /  1026hPa NNE 2.0mph /  3.2km/h 5.0mph /  8km/h 23% 0.00in /  0mm 39.0 W/m2
15:47 70.3 °F /  21.3 °C 30.7 °F /  -0.7 °C 30.30in /  1026hPa Calm     23% 0.00in /  0mm 35.0 W/m2
15:53 70.0 °F /  21.1 °C 30.6 °F /  -0.8 °C 30.30in /  1026hPa Calm   1.0mph /  1.6km/h 23% 0.00in /  0mm 33.0 W/m2
15:59 69.6 °F /  20.9 °C 31.3 °F /  -0.4 °C 30.30in /  1026hPa Calm   2.0mph /  3.2km/h 24% 0.00in /  0mm 30.0 W/m2
16:05 69.4 °F /  20.8 °C 31.1 °F /  -0.5 °C 30.30in /  1026hPa Calm   1.0mph /  1.6km/h 24% 0.00in /  0mm 25.0 W/m2
16:11 69.1 °F /  20.6 °C 29.7 °F /  -1.3 °C 30.30in /  1026hPa WSW 2.0mph /  3.2km/h 3.0mph /  4.8km/h 23% 0.00in /  0mm 23.0 W/m2
16:17 68.9 °F /  20.5 °C 30.6 °F /  -0.8 °C 30.30in /  1026hPa Calm     24% 0.00in /  0mm 21.0 W/m2
16:23 68.5 °F /  20.3 °C 31.3 °F /  -0.4 °C 30.31in /  1026.3hPa Calm     25% 0.00in /  0mm 19.0 W/m2
16:29 68.2 °F /  20.1 °C 31.1 °F /  -0.5 °C 30.31in /  1026.3hPa Calm     25% 0.00in /  0mm 18.0 W/m2
16:31 68.2 °F /  20.1 °C 31.1 °F /  -0.5 °C 30.31in /  1026.3hPa Calm     25% 0.00in /  0mm 18.0 W/m2
16:37 67.6 °F /  19.8 °C 31.5 °F /  -0.3 °C 30.31in /  1026.3hPa Calm     26% 0.00in /  0mm 16.0 W/m2
16:43 67.3 °F /  19.6 °C 32.2 °F /  0.1 °C 30.31in /  1026.3hPa Calm     27% 0.00in /  0mm 16.0 W/m2
16:49 66.7 °F /  19.3 °C 30.7 °F /  -0.7 °C 30.31in /  1026.3hPa Calm     26% 0.00in /  0mm 14.0 W/m2
16:55 66.4 °F /  19.1 °C 32.4 °F /  0.2 °C 30.32in /  1026.6hPa Calm     28% 0.00in /  0mm 12.0 W/m2
17:02 65.7 °F /  18.7 °C 32.5 °F /  0.3 °C 30.32in /  1026.6hPa Calm     29% 0.00in /  0mm 9.0 W/m2
17:08 65.1 °F /  18.4 °C 32.9 °F /  0.5 °C 30.32in /  1026.6hPa Calm     30% 0.00in /  0mm 7.0 W/m2
17:14 64.6 °F /  18.1 °C 33.3 °F /  0.7 °C 30.32in /  1026.6hPa Calm     31% 0.00in /  0mm 0.0 W/m2
17:20 63.9 °F /  17.7 °C 31.8 °F /  -0.1 °C 30.32in /  1026.6hPa Calm     30% 0.00in /  0mm 0.0 W/m2
17:26 63.1 °F /  17.3 °C 31.3 °F /  -0.4 °C 30.33in /  1027hPa Calm     30% 0.00in /  0mm 0.0 W/m2
17:32 62.4 °F /  16.9 °C 30.6 °F /  -0.8 °C 30.33in /  1027hPa Calm     30% 0.00in /  0mm 0.0 W/m2
17:38 61.9 °F /  16.6 °C 30.9 °F /  -0.6 °C 30.33in /  1027hPa Calm     31% 0.00in /  0mm 0.0 W/m2
17:44 61.2 °F /  16.2 °C 31.1 °F /  -0.5 °C 30.33in /  1027hPa Calm     32% 0.00in /  0mm 0.0 W/m2
17:50 60.6 °F /  15.9 °C 31.3 °F /  -0.4 °C 30.33in /  1027hPa Calm     33% 0.00in /  0mm 0.0 W/m2
17:56 60.3 °F /  15.7 °C 31.1 °F /  -0.5 °C 30.33in /  1027hPa Calm   1.0mph /  1.6km/h 33% 0.00in /  0mm 0.0 W/m2
18:02 59.7 °F /  15.4 °C 30.6 °F /  -0.8 °C 30.34in /  1027.3hPa Calm     33% 0.00in /  0mm 0.0 W/m2
18:08 59.2 °F /  15.1 °C 30.0 °F /  -1.1 °C 30.34in /  1027.3hPa Calm     33% 0.00in /  0mm 0.0 W/m2
18:15 58.6 °F /  14.8 °C 30.4 °F /  -0.9 °C 30.34in /  1027.3hPa ENE 0.9mph /  1.4km/h 1.0mph /  1.6km/h 34% 0.00in /  0mm 0.0 W/m2
18:21 58.3 °F /  14.6 °C 30.0 °F /  -1.1 °C 30.34in /  1027.3hPa ENE 0.9mph /  1.4km/h 1.0mph /  1.6km/h 34% 0.00in /  0mm 0.0 W/m2
18:27 57.9 °F /  14.4 °C 30.4 °F /  -0.9 °C 30.34in /  1027.3hPa Calm   1.0mph /  1.6km/h 35% 0.00in /  0mm 0.0 W/m2
18:33 57.6 °F /  14.2 °C 30.0 °F /  -1.1 °C 30.35in /  1027.7hPa Calm   1.0mph /  1.6km/h 35% 0.00in /  0mm 0.0 W/m2
18:39 57.4 °F /  14.1 °C 30.0 °F /  -1.1 °C 30.35in /  1027.7hPa East 0.9mph /  1.4km/h 1.0mph /  1.6km/h 35% 0.00in /  0mm 0.0 W/m2
18:45 57.0 °F /  13.9 °C 30.4 °F /  -0.9 °C 30.35in /  1027.7hPa Calm     36% 0.00in /  0mm 0.0 W/m2
18:51 56.8 °F /  13.8 °C 30.2 °F /  -1 °C 30.35in /  1027.7hPa Calm     36% 0.00in /  0mm 0.0 W/m2
18:58 56.7 °F /  13.7 °C 30.0 °F /  -1.1 °C 30.35in /  1027.7hPa Calm   2.0mph /  3.2km/h 36% 0.00in /  0mm 0.0 W/m2
19:04 56.1 °F /  13.4 °C 30.2 °F /  -1 °C 30.35in /  1027.7hPa Calm   2.0mph /  3.2km/h 37% 0.00in /  0mm 0.0 W/m2
19:12 55.8 °F /  13.2 °C 30.6 °F /  -0.8 °C 30.36in /  1028hPa East 0.9mph /  1.4km/h 1.0mph /  1.6km/h 38% 0.00in /  0mm 0.0 W/m2
19:18 55.2 °F /  12.9 °C 30.0 °F /  -1.1 °C 30.36in /  1028hPa Calm   1.0mph /  1.6km/h 38% 0.00in /  0mm 0.0 W/m2
19:24 55.0 °F /  12.8 °C 29.8 °F /  -1.2 °C 30.36in /  1028hPa Calm   1.0mph /  1.6km/h 38% 0.00in /  0mm 0.0 W/m2
19:30 54.7 °F /  12.6 °C 30.2 °F /  -1 °C 30.36in /  1028hPa Calm   1.0mph /  1.6km/h 39% 0.00in /  0mm 0.0 W/m2
19:36 54.1 °F /  12.3 °C 29.7 °F /  -1.3 °C 30.36in /  1028hPa Calm   1.0mph /  1.6km/h 39% 0.00in /  0mm 0.0 W/m2
19:42 53.8 °F /  12.1 °C 30.0 °F /  -1.1 °C 30.36in /  1028hPa East 0.9mph /  1.4km/h 2.0mph /  3.2km/h 40% 0.00in /  0mm 0.0 W/m2
19:48 53.6 °F /  12 °C 29.8 °F /  -1.2 °C 30.36in /  1028hPa Calm   1.0mph /  1.6km/h 40% 0.00in /  0mm 0.0 W/m2
19:52 53.4 °F /  11.9 °C 29.7 °F /  -1.3 °C 30.36in /  1028hPa Calm   1.0mph /  1.6km/h 40% 0.00in /  0mm 0.0 W/m2
19:58 53.2 °F /  11.8 °C 29.5 °F /  -1.4 °C 30.37in /  1028.3hPa ENE 0.9mph /  1.4km/h 1.0mph /  1.6km/h 40% 0.00in /  0mm 0.0 W/m2
20:04 53.1 °F /  11.7 °C 29.3 °F /  -1.5 °C 30.37in /  1028.3hPa Calm   1.0mph /  1.6km/h 40% 0.00in /  0mm 0.0 W/m2
20:11 52.9 °F /  11.6 °C 29.3 °F /  -1.5 °C 30.37in /  1028.3hPa Calm   2.0mph /  3.2km/h 40% 0.00in /  0mm 0.0 W/m2
20:17 52.5 °F /  11.4 °C 29.5 °F /  -1.4 °C 30.37in /  1028.3hPa Calm   2.0mph /  3.2km/h 41% 0.00in /  0mm 0.0 W/m2
20:23 52.5 °F /  11.4 °C 29.5 °F /  -1.4 °C 30.37in /  1028.3hPa Calm   3.0mph /  4.8km/h 41% 0.00in /  0mm 0.0 W/m2
20:29 52.3 °F /  11.3 °C 29.8 °F /  -1.2 °C 30.37in /  1028.3hPa Calm   2.0mph /  3.2km/h 42% 0.00in /  0mm 0.0 W/m2
20:35 52.2 °F /  11.2 °C 29.8 °F /  -1.2 °C 30.37in /  1028.3hPa Calm   2.0mph /  3.2km/h 42% 0.00in /  0mm 0.0 W/m2
20:41 52.2 °F /  11.2 °C 29.8 °F /  -1.2 °C 30.37in /  1028.3hPa East 0.9mph /  1.4km/h 3.0mph /  4.8km/h 42% 0.00in /  0mm 0.0 W/m2
20:47 52.2 °F /  11.2 °C 29.8 °F /  -1.2 °C 30.37in /  1028.3hPa Calm   4.0mph /  6.4km/h 42% 0.00in /  0mm 0.0 W/m2
20:53 52.0 °F /  11.1 °C 29.7 °F /  -1.3 °C 30.37in /  1028.3hPa ENE 0.9mph /  1.4km/h 3.0mph /  4.8km/h 42% 0.00in /  0mm 0.0 W/m2
21:00 52.0 °F /  11.1 °C 29.7 °F /  -1.3 °C 30.37in /  1028.3hPa Calm   1.0mph /  1.6km/h 42% 0.00in /  0mm 0.0 W/m2
21:06 52.0 °F /  11.1 °C 29.7 °F /  -1.3 °C 30.37in /  1028.3hPa Calm   1.0mph /  1.6km/h 42% 0.00in /  0mm 0.0 W/m2
21:13 52.0 °F /  11.1 °C 29.7 °F /  -1.3 °C 30.37in /  1028.3hPa Calm   2.0mph /  3.2km/h 42% 0.00in /  0mm 0.0 W/m2
21:18 52.0 °F /  11.1 °C 29.7 °F /  -1.3 °C 30.37in /  1028.3hPa ENE 2.0mph /  3.2km/h 2.0mph /  3.2km/h 42% 0.00in /  0mm 0.0 W/m2
21:24 51.8 °F /  11 °C 30.0 °F /  -1.1 °C 30.37in /  1028.3hPa East 0.9mph /  1.4km/h 2.0mph /  3.2km/h 43% 0.00in /  0mm 0.0 W/m2
21:30 51.6 °F /  10.9 °C 29.8 °F /  -1.2 °C 30.37in /  1028.3hPa East 0.9mph /  1.4km/h 2.0mph /  3.2km/h 43% 0.00in /  0mm 0.0 W/m2
21:37 51.4 °F /  10.8 °C 29.7 °F /  -1.3 °C 30.37in /  1028.3hPa NE 2.0mph /  3.2km/h 4.0mph /  6.4km/h 43% 0.00in /  0mm 0.0 W/m2
21:42 51.4 °F /  10.8 °C 29.7 °F /  -1.3 °C 30.37in /  1028.3hPa East 2.9mph /  4.7km/h 4.0mph /  6.4km/h 43% 0.00in /  0mm 0.0 W/m2
21:48 51.4 °F /  10.8 °C 29.7 °F /  -1.3 °C 30.37in /  1028.3hPa Calm   4.0mph /  6.4km/h 43% 0.00in /  0mm 0.0 W/m2
21:54 51.4 °F /  10.8 °C 29.7 °F /  -1.3 °C 30.37in /  1028.3hPa ESE 2.0mph /  3.2km/h 2.0mph /  3.2km/h 43% 0.00in /  0mm 0.0 W/m2
22:01 51.4 °F /  10.8 °C 29.7 °F /  -1.3 °C 30.37in /  1028.3hPa ESE 0.9mph /  1.4km/h 1.0mph /  1.6km/h 43% 0.00in /  0mm 0.0 W/m2
22:07 51.3 °F /  10.7 °C 29.5 °F /  -1.4 °C 30.37in /  1028.3hPa Calm   1.0mph /  1.6km/h 43% 0.00in /  0mm 0.0 W/m2
22:13 51.3 °F /  10.7 °C 30.0 °F /  -1.1 °C 30.37in /  1028.3hPa SE 0.9mph /  1.4km/h 3.0mph /  4.8km/h 44% 0.00in /  0mm 0.0 W/m2
22:19 51.1 °F /  10.6 °C 29.8 °F /  -1.2 °C 30.37in /  1028.3hPa Calm   2.0mph /  3.2km/h 44% 0.00in /  0mm 0.0 W/m2
22:25 51.1 °F /  10.6 °C 29.8 °F /  -1.2 °C 30.38in /  1028.7hPa Calm     44% 0.00in /  0mm 0.0 W/m2
22:31 50.7 °F /  10.4 °C 29.7 °F /  -1.3 °C 30.38in /  1028.7hPa Calm     44% 0.00in /  0mm 0.0 W/m2
22:37 50.5 °F /  10.3 °C 30.0 °F /  -1.1 °C 30.38in /  1028.7hPa Calm   1.0mph /  1.6km/h 45% 0.00in /  0mm 0.0 W/m2
22:43 50.4 °F /  10.2 °C 29.8 °F /  -1.2 °C 30.38in /  1028.7hPa Calm     45% 0.00in /  0mm 0.0 W/m2
22:50 50.2 °F /  10.1 °C 30.2 °F /  -1 °C 30.38in /  1028.7hPa Calm     46% 0.00in /  0mm 0.0 W/m2
22:56 49.8 °F /  9.9 °C 29.8 °F /  -1.2 °C 30.38in /  1028.7hPa Calm     46% 0.00in /  0mm 0.0 W/m2
23:02 49.5 °F /  9.7 °C 30.0 °F /  -1.1 °C 30.38in /  1028.7hPa Calm     47% 0.00in /  0mm 0.0 W/m2
23:08 49.1 °F /  9.5 °C 29.7 °F /  -1.3 °C 30.37in /  1028.3hPa Calm     47% 0.00in /  0mm 0.0 W/m2
23:14 48.7 °F /  9.3 °C 29.8 °F /  -1.2 °C 30.37in /  1028.3hPa Calm     48% 0.00in /  0mm 0.0 W/m2
23:20 48.4 °F /  9.1 °C 29.7 °F /  -1.3 °C 30.38in /  1028.7hPa Calm     48% 0.00in /  0mm 0.0 W/m2
23:26 47.8 °F /  8.8 °C 29.1 °F /  -1.6 °C 30.37in /  1028.3hPa Calm     48% 0.00in /  0mm 0.0 W/m2
23:32 47.7 °F /  8.7 °C 28.9 °F /  -1.7 °C 30.37in /  1028.3hPa Calm   1.0mph /  1.6km/h 48% 0.00in /  0mm 0.0 W/m2
23:38 47.3 °F /  8.5 °C 29.7 °F /  -1.3 °C 30.37in /  1028.3hPa Calm     50% 0.00in /  0mm 0.0 W/m2
23:44 47.1 °F /  8.4 °C 29.5 °F /  -1.4 °C 30.37in /  1028.3hPa Calm     50% 0.00in /  0mm 0.0 W/m2
23:50 46.9 °F /  8.3 °C 29.3 °F /  -1.5 °C 30.37in /  1028.3hPa Calm   1.0mph /  1.6km/h 50% 0.00in /  0mm 0.0 W/m2
23:56 46.9 °F /  8.3 °C 29.3 °F /  -1.5 °C 30.37in /  1028.3hPa Calm     50% 0.00in /  0mm 0.0 W/m2
Olympia, Windhoek, Namibia
Compliments of Weather Underground - 3 mb